createdAt,value
2018-07-24T00:00:31.365Z,86.50
2018-07-24T00:03:03.465Z,86.10
2018-07-24T00:05:34.274Z,86.20
2018-07-24T00:08:13.582Z,86.10
2018-07-24T00:10:44.912Z,86.30
2018-07-24T00:13:16.811Z,86.50
2018-07-24T00:15:51.132Z,86.40
2018-07-24T00:18:23.273Z,87.10
2018-07-24T00:20:54.387Z,86.30
2018-07-24T00:23:26.258Z,86.30
2018-07-24T00:26:00.857Z,86.50
2018-07-24T00:31:03.117Z,86.30
2018-07-24T00:33:36.497Z,85.80
2018-07-24T00:36:08.127Z,85.40
2018-07-24T00:38:38.576Z,84.10
2018-07-24T00:41:11.186Z,85.00
2018-07-24T00:43:50.894Z,84.30
2018-07-24T00:46:30.655Z,84.20
2018-07-24T00:49:09.937Z,84.70
2018-07-24T00:51:49.391Z,84.90
2018-07-24T00:54:29.940Z,84.80
2018-07-24T00:57:01.871Z,84.20
2018-07-24T00:59:34.138Z,84.00
2018-07-24T01:02:06.252Z,84.40
2018-07-24T01:04:42.139Z,84.50
2018-07-24T01:07:13.531Z,84.40
2018-07-24T01:09:44.740Z,84.60
2018-07-24T01:12:17.905Z,85.20
2018-07-24T01:14:49.596Z,85.30
2018-07-24T01:17:20.031Z,85.60
2018-07-24T01:19:59.656Z,85.90
2018-07-24T01:22:31.605Z,85.80
2018-07-24T01:25:03.975Z,85.50
2018-07-24T01:27:43.741Z,85.80
2018-07-24T01:30:16.822Z,85.90
2018-07-24T01:32:48.923Z,85.60
2018-07-24T01:35:20.643Z,85.60
2018-07-24T01:37:52.756Z,85.80
2018-07-24T01:40:24.245Z,85.70
2018-07-24T01:43:03.885Z,85.80
2018-07-24T01:45:43.850Z,85.80
2018-07-24T01:48:15.073Z,85.70
2018-07-24T01:50:54.526Z,85.70
2018-07-24T01:53:34.282Z,85.70
2018-07-24T01:56:14.239Z,85.00
2018-07-24T01:58:45.199Z,85.60
2018-07-24T02:01:16.344Z,85.10
2018-07-24T02:03:56.306Z,85.00
2018-07-24T02:06:37.680Z,85.00
2018-07-24T02:09:10.180Z,84.70
2018-07-24T02:11:50.668Z,84.90
2018-07-24T02:14:26.799Z,84.70
2018-07-24T02:17:04.069Z,84.90
2018-07-24T02:19:43.761Z,85.00
2018-07-24T02:22:15.261Z,84.90
2018-07-24T02:24:47.651Z,84.80
2018-07-24T02:27:27.879Z,85.00
2018-07-24T02:30:07.660Z,84.90
2018-07-24T02:32:39.226Z,85.10
2018-07-24T02:35:10.547Z,84.80
2018-07-24T02:37:41.327Z,84.80
2018-07-24T02:40:12.767Z,85.20
2018-07-24T02:42:45.475Z,85.00
2018-07-24T02:45:17.261Z,84.90
2018-07-24T02:47:53.915Z,85.20
2018-07-24T02:50:29.740Z,84.60
2018-07-24T02:53:01.292Z,85.00
2018-07-24T02:55:33.691Z,84.50
2018-07-24T02:58:04.752Z,84.70
2018-07-24T03:00:35.790Z,84.90
2018-07-24T03:03:15.883Z,85.10
2018-07-24T03:05:55.679Z,84.80
2018-07-24T03:08:26.408Z,85.20
2018-07-24T03:11:02.369Z,85.30
2018-07-24T03:13:37.419Z,84.90
2018-07-24T03:16:08.724Z,84.80
2018-07-24T03:18:48.515Z,84.60
2018-07-24T03:21:19.875Z,84.60
2018-07-24T03:23:51.865Z,84.40
2018-07-24T03:26:23.454Z,84.40
2018-07-24T03:28:55.007Z,84.40
2018-07-24T03:31:34.595Z,84.70
2018-07-24T03:34:14.807Z,84.80
2018-07-24T03:36:51.596Z,84.10
2018-07-24T03:39:31.271Z,83.60
2018-07-24T03:42:11.260Z,83.90
2018-07-24T03:44:42.704Z,83.30
2018-07-24T03:47:14.274Z,83.30
2018-07-24T03:49:54.499Z,83.60
2018-07-24T03:52:25.752Z,83.90
2018-07-24T03:55:05.670Z,84.00
2018-07-24T03:57:45.228Z,84.30
2018-07-24T04:00:24.633Z,84.40
2018-07-24T04:03:04.745Z,84.00
2018-07-24T04:05:44.773Z,84.30
2018-07-24T04:08:16.936Z,84.20
2018-07-24T04:10:56.801Z,84.20
2018-07-24T04:13:28.351Z,84.30
2018-07-24T04:15:59.093Z,83.90
2018-07-24T04:18:35.110Z,84.40
2018-07-24T04:23:39.040Z,83.90
2018-07-24T04:26:18.725Z,84.10
2018-07-24T04:28:50.432Z,83.70
2018-07-24T04:31:22.242Z,83.80
2018-07-24T04:33:53.962Z,83.90
2018-07-24T04:36:33.621Z,83.60
2018-07-24T04:39:09.710Z,83.40
2018-07-24T04:41:42.302Z,83.60
2018-07-24T04:44:20.774Z,83.40
2018-07-24T04:46:52.413Z,82.60
2018-07-24T04:52:00.841Z,82.30
2018-07-24T04:54:41.587Z,83.70
2018-07-24T04:57:14.144Z,83.70
2018-07-24T04:59:56.020Z,84.20
2018-07-24T05:02:30.373Z,83.90
2018-07-24T05:05:23.609Z,83.90
2018-07-24T05:07:55.900Z,83.60
2018-07-24T05:10:30.801Z,82.60
2018-07-24T05:13:04.109Z,82.10
2018-07-24T05:16:05.905Z,82.80
2018-07-24T05:18:39.256Z,83.40
2018-07-24T05:21:11.635Z,82.00
2018-07-24T05:23:45.905Z,82.10
2018-07-24T05:27:32.288Z,81.80
2018-07-24T05:30:08.935Z,81.30
2018-07-24T05:32:45.415Z,80.40
2018-07-24T05:35:17.225Z,80.20
2018-07-24T05:37:52.086Z,79.90
2018-07-24T05:40:24.475Z,79.70
2018-07-24T05:42:56.318Z,79.30
2018-07-24T05:45:49.069Z,79.60
2018-07-24T05:48:20.345Z,79.40
2018-07-24T05:50:51.805Z,78.60
2018-07-24T05:53:23.285Z,77.40
2018-07-24T05:55:54.484Z,77.80
2018-07-24T05:58:25.825Z,77.80
2018-07-24T06:00:57.445Z,75.50
2018-07-24T06:03:29.006Z,75.20
2018-07-24T06:05:59.785Z,74.60
2018-07-24T06:08:32.206Z,75.10
2018-07-24T06:11:03.535Z,74.90
2018-07-24T06:13:35.909Z,72.90
2018-07-24T06:16:07.276Z,74.10
2018-07-24T06:18:39.372Z,73.80
2018-07-24T06:21:11.525Z,72.90
2018-07-24T06:23:43.695Z,72.60
2018-07-24T06:26:16.025Z,71.80
2018-07-24T06:28:46.955Z,72.50
2018-07-24T06:31:27.438Z,72.20
2018-07-24T06:34:07.645Z,70.00
2018-07-24T06:36:48.263Z,69.90
2018-07-24T06:39:29.358Z,69.90
2018-07-24T06:42:01.542Z,68.70
2018-07-24T06:44:32.886Z,69.00
2018-07-24T06:47:14.126Z,70.30
2018-07-24T06:49:48.196Z,69.20
2018-07-24T06:52:21.065Z,69.60
2018-07-24T06:58:27.635Z,70.20
2018-07-24T07:01:07.385Z,69.50
2018-07-24T07:03:38.756Z,69.70
2018-07-24T07:06:10.244Z,70.20
2018-07-24T07:11:12.566Z,69.90
2018-07-24T07:13:47.365Z,70.00
2018-07-24T07:16:18.701Z,69.30
2018-07-24T07:18:51.254Z,69.80
2018-07-24T07:21:23.155Z,70.60
2018-07-24T07:24:03.051Z,68.80
2018-07-24T07:26:34.942Z,69.00
2018-07-24T07:29:08.031Z,69.60
2018-07-24T07:31:40.311Z,69.70
2018-07-24T07:34:20.551Z,69.80
2018-07-24T07:37:00.446Z,68.50
2018-07-24T07:39:39.988Z,68.30
2018-07-24T07:44:59.588Z,67.90
2018-07-24T07:47:39.624Z,68.60
2018-07-24T07:50:19.518Z,68.60
2018-07-24T07:53:00.217Z,69.10
2018-07-24T07:55:56.573Z,68.50
2018-07-24T07:58:41.905Z,67.40
2018-07-24T08:01:21.989Z,65.90
2018-07-24T08:04:02.313Z,67.20
2018-07-24T08:06:42.225Z,68.30
2018-07-24T08:09:22.290Z,67.10
2018-07-24T08:12:02.359Z,66.70
2018-07-24T08:14:42.718Z,65.50
2018-07-24T08:17:23.337Z,66.30
2018-07-24T08:20:03.838Z,66.00
2018-07-24T08:22:44.247Z,64.80
2018-07-24T08:25:24.662Z,65.10
2018-07-24T08:28:04.952Z,66.60
2018-07-24T08:30:45.076Z,67.00
2018-07-24T08:33:21.171Z,67.50
2018-07-24T08:35:59.160Z,66.40
2018-07-24T08:38:39.456Z,66.50
2018-07-24T08:41:20.012Z,65.90
2018-07-24T08:44:00.484Z,65.40
2018-07-24T08:46:37.552Z,64.30
2018-07-24T08:49:13.351Z,63.40
2018-07-24T08:51:51.909Z,63.30
2018-07-24T08:54:28.729Z,61.60
2018-07-24T08:57:06.202Z,61.50
2018-07-24T08:59:47.299Z,60.70
2018-07-24T09:02:27.501Z,61.00
2018-07-24T09:05:07.148Z,62.20
2018-07-24T09:07:48.180Z,61.80
2018-07-24T09:10:28.121Z,60.00
2018-07-24T09:13:08.091Z,59.70
2018-07-24T09:15:47.988Z,60.10
2018-07-24T09:18:28.335Z,59.70
2018-07-24T09:21:04.476Z,60.10
2018-07-24T09:23:46.455Z,58.20
2018-07-24T09:26:25.795Z,59.20
2018-07-24T09:29:05.555Z,58.20
2018-07-24T09:31:45.550Z,59.40
2018-07-24T09:34:26.242Z,58.90
2018-07-24T09:37:06.263Z,57.20
2018-07-24T09:39:46.450Z,57.00
2018-07-24T09:45:04.823Z,58.10
2018-07-24T09:47:42.890Z,55.50
2018-07-24T09:50:23.246Z,53.20
2018-07-24T09:53:03.278Z,53.00
2018-07-24T09:55:44.391Z,52.20
2018-07-24T09:58:16.405Z,51.40
2018-07-24T10:01:00.897Z,51.80
2018-07-24T10:03:40.536Z,52.50
2018-07-24T10:06:20.537Z,50.80
2018-07-24T10:09:00.124Z,51.00
2018-07-24T10:11:39.953Z,50.40
2018-07-24T10:14:20.063Z,51.60
2018-07-24T10:16:59.438Z,50.50
2018-07-24T10:19:37.346Z,49.30
2018-07-24T10:22:16.936Z,49.20
2018-07-24T10:24:56.707Z,48.30
2018-07-24T10:27:36.655Z,49.00
2018-07-24T10:30:17.052Z,50.20
2018-07-24T10:32:57.355Z,49.60
2018-07-24T10:35:37.446Z,49.40
2018-07-24T10:38:17.290Z,49.60
2018-07-24T10:40:59.008Z,48.50
2018-07-24T10:43:31.580Z,49.00
2018-07-24T10:46:12.459Z,49.70
2018-07-24T10:48:57.850Z,46.10
2018-07-24T10:51:37.589Z,46.00
2018-07-24T10:54:33.407Z,46.80
2018-07-24T10:57:18.850Z,46.40
2018-07-24T11:00:04.902Z,46.60
2018-07-24T11:02:47.139Z,44.50
2018-07-24T11:05:31.262Z,43.60
2018-07-24T11:08:12.789Z,43.80
2018-07-24T11:13:45.389Z,42.10
2018-07-24T11:19:15.306Z,44.00
2018-07-24T11:21:57.156Z,42.70
2018-07-24T11:24:37.140Z,41.70
2018-07-24T11:27:17.284Z,41.80
2018-07-24T11:29:56.231Z,42.60
2018-07-24T11:32:34.005Z,41.80
2018-07-24T11:35:13.969Z,41.70
2018-07-24T11:37:53.428Z,42.50
2018-07-24T11:40:34.094Z,43.00
2018-07-24T11:43:14.252Z,43.10
2018-07-24T11:45:54.339Z,42.50
2018-07-24T11:48:34.696Z,43.10
2018-07-24T11:51:14.539Z,41.80
2018-07-24T11:53:55.171Z,42.30
2018-07-24T11:56:35.130Z,42.30
2018-07-24T11:59:15.342Z,42.40
2018-07-24T12:01:50.173Z,42.90
2018-07-24T12:04:30.491Z,43.70
2018-07-24T12:07:10.089Z,42.70
2018-07-24T12:09:50.082Z,43.50
2018-07-24T12:12:29.730Z,42.10
2018-07-24T12:15:07.367Z,42.20
2018-07-24T12:17:46.925Z,41.40
2018-07-24T12:20:26.396Z,43.00
2018-07-24T12:23:06.092Z,40.60
2018-07-24T12:25:46.175Z,41.40
2018-07-24T12:28:25.831Z,40.80
2018-07-24T12:31:05.853Z,41.40
2018-07-24T12:33:46.225Z,41.00
2018-07-24T12:36:26.567Z,40.30
2018-07-24T12:39:09.099Z,42.20
2018-07-24T12:41:48.532Z,40.80
2018-07-24T12:44:28.734Z,42.90
2018-07-24T12:47:08.900Z,42.60
2018-07-24T12:49:48.475Z,44.00
2018-07-24T12:52:28.174Z,42.50
2018-07-24T12:57:39.148Z,42.00
2018-07-24T13:00:19.855Z,41.20
2018-07-24T13:03:00.270Z,41.60
2018-07-24T13:05:40.247Z,41.00
2018-07-24T13:08:19.495Z,40.90
2018-07-24T13:10:53.102Z,41.20
2018-07-24T13:13:26.798Z,44.40
2018-07-24T13:16:03.095Z,44.10
2018-07-24T13:18:39.629Z,43.50
2018-07-24T13:21:19.992Z,42.20
2018-07-24T13:23:59.999Z,42.50
2018-07-24T13:26:39.762Z,42.30
2018-07-24T13:29:18.018Z,42.10
2018-07-24T13:31:57.867Z,42.90
2018-07-24T13:34:33.583Z,42.40
2018-07-24T13:37:13.486Z,42.10
2018-07-24T13:39:53.773Z,42.80
2018-07-24T13:42:33.685Z,42.20
2018-07-24T13:45:13.114Z,41.50
2018-07-24T13:47:53.754Z,41.70
2018-07-24T13:50:26.425Z,42.10
2018-07-24T13:53:04.089Z,42.60
2018-07-24T13:55:44.104Z,41.10
2018-07-24T13:58:24.399Z,41.80
2018-07-24T14:01:04.537Z,40.90
2018-07-24T14:03:44.747Z,41.80
2018-07-24T14:06:24.997Z,42.10
2018-07-24T14:09:04.995Z,42.10
2018-07-24T14:11:45.451Z,42.50
2018-07-24T14:14:25.473Z,43.20
2018-07-24T14:17:01.905Z,42.40
2018-07-24T14:19:39.699Z,42.60
2018-07-24T14:22:20.880Z,42.20
2018-07-24T14:25:00.825Z,44.10
2018-07-24T14:27:40.356Z,43.00
2018-07-24T14:30:20.403Z,41.80
2018-07-24T14:33:14.101Z,42.70
2018-07-24T14:35:54.751Z,42.70
2018-07-24T14:38:35.012Z,43.80
2018-07-24T14:41:14.933Z,41.40
2018-07-24T14:43:55.976Z,40.90
2018-07-24T14:46:36.613Z,40.50
2018-07-24T14:49:17.261Z,40.20
2018-07-24T14:51:57.441Z,42.50
2018-07-24T14:54:38.337Z,43.30
2018-07-24T14:57:18.311Z,42.70
2018-07-24T14:59:58.172Z,42.30
2018-07-24T15:02:36.523Z,41.10
2018-07-24T15:05:16.430Z,43.30
2018-07-24T15:07:56.746Z,42.40
2018-07-24T15:10:37.175Z,42.40
2018-07-24T15:13:17.793Z,43.30
2018-07-24T15:15:57.288Z,43.30
2018-07-24T15:18:37.139Z,42.70
2018-07-24T15:21:17.018Z,43.60
2018-07-24T15:23:57.353Z,41.90
2018-07-24T15:26:37.659Z,43.00
2018-07-24T15:29:11.318Z,43.20
2018-07-24T15:31:47.128Z,42.80
2018-07-24T15:34:27.776Z,42.70
2018-07-24T15:37:08.458Z,41.20
2018-07-24T15:39:48.467Z,41.00
2018-07-24T15:42:21.517Z,40.50
2018-07-24T15:44:57.853Z,41.20
2018-07-24T15:47:31.144Z,42.50
2018-07-24T15:50:07.230Z,41.60
2018-07-24T15:52:47.309Z,40.50
2018-07-24T15:55:27.704Z,40.00
2018-07-24T15:58:00.607Z,40.60
2018-07-24T16:00:40.774Z,41.20
2018-07-24T16:03:20.963Z,41.70
2018-07-24T16:06:00.654Z,40.40
2018-07-24T16:08:37.270Z,40.00
2018-07-24T16:11:12.329Z,39.90
2018-07-24T16:13:52.836Z,40.00
2018-07-24T16:16:24.723Z,39.90
2018-07-24T16:18:56.323Z,40.70
2018-07-24T16:21:27.952Z,40.00
2018-07-24T16:24:31.752Z,40.00
2018-07-24T16:27:03.243Z,40.60
2018-07-24T16:29:34.402Z,41.40
2018-07-24T16:32:05.642Z,41.50
2018-07-24T16:34:49.272Z,42.70
2018-07-24T16:37:20.832Z,43.40
2018-07-24T16:39:51.042Z,43.00
2018-07-24T16:42:22.532Z,42.10
2018-07-24T16:45:20.282Z,42.70
2018-07-24T16:47:51.022Z,40.90
2018-07-24T16:50:22.105Z,41.10
2018-07-24T16:52:54.464Z,41.10
2018-07-24T16:55:25.182Z,41.20
2018-07-24T16:57:59.173Z,40.80
2018-07-24T17:00:31.093Z,41.00
2018-07-24T17:03:28.161Z,41.20
2018-07-24T17:05:58.832Z,41.50
2018-07-24T17:08:29.472Z,42.80
2018-07-24T17:11:01.433Z,42.60
2018-07-24T17:14:11.072Z,41.40
2018-07-24T17:16:41.112Z,41.70
2018-07-24T17:19:11.632Z,41.00
2018-07-24T17:21:43.052Z,41.30
2018-07-24T17:24:14.823Z,41.10
2018-07-24T17:26:51.832Z,44.10
2018-07-24T17:29:24.197Z,43.20
2018-07-24T17:31:54.977Z,43.40
2018-07-24T17:34:29.809Z,44.60
2018-07-24T17:37:00.369Z,45.70
2018-07-24T17:39:31.477Z,46.80
2018-07-24T17:42:02.690Z,47.40
2018-07-24T17:45:00.737Z,49.70
2018-07-24T17:47:32.147Z,50.40
2018-07-24T17:50:02.388Z,51.70
2018-07-24T17:53:14.510Z,51.60
2018-07-24T17:55:45.783Z,50.60
2018-07-24T17:58:16.767Z,52.00
2018-07-24T18:00:47.219Z,51.60
2018-07-24T18:04:03.448Z,52.10
2018-07-24T18:06:34.966Z,52.90
2018-07-24T18:09:12.967Z,52.90
2018-07-24T18:11:45.528Z,53.00
2018-07-24T18:14:17.436Z,53.40
2018-07-24T18:16:48.396Z,52.90
2018-07-24T18:19:19.888Z,53.40
2018-07-24T18:21:50.987Z,53.70
2018-07-24T18:24:39.276Z,54.20
2018-07-24T18:27:09.909Z,55.10
2018-07-24T18:29:40.536Z,55.50
2018-07-24T18:32:11.539Z,55.20
2018-07-24T18:34:43.838Z,55.60
2018-07-24T18:37:23.062Z,56.40
2018-07-24T18:40:02.734Z,54.70
2018-07-24T18:42:42.205Z,53.90
2018-07-24T18:45:22.250Z,55.00
2018-07-24T18:48:01.928Z,56.40
2018-07-24T18:50:41.987Z,56.60
2018-07-24T18:53:13.634Z,57.30
2018-07-24T18:55:53.479Z,57.60
2018-07-24T18:58:26.013Z,57.70
2018-07-24T19:01:05.634Z,56.60
2018-07-24T19:03:42.510Z,56.30
2018-07-24T19:06:21.901Z,57.20
2018-07-24T19:09:01.843Z,55.80
2018-07-24T19:11:43.312Z,56.70
2018-07-24T19:14:23.223Z,57.70
2018-07-24T19:17:03.174Z,58.50
2018-07-24T19:19:42.857Z,59.00
2018-07-24T19:22:22.701Z,59.20
2018-07-24T19:25:03.118Z,59.40
2018-07-24T19:27:42.785Z,59.50
2018-07-24T19:30:22.529Z,59.80
2018-07-24T19:33:02.103Z,58.30
2018-07-24T19:35:57.347Z,58.90
2018-07-24T19:38:43.505Z,59.10
2018-07-24T19:41:24.301Z,60.40
2018-07-24T19:44:04.278Z,61.10
2018-07-24T19:46:44.070Z,61.50
2018-07-24T19:49:18.595Z,61.40
2018-07-24T19:51:58.110Z,62.20
2018-07-24T19:54:37.783Z,62.40
2018-07-24T19:57:17.035Z,62.60
2018-07-24T19:59:53.337Z,62.60
2018-07-24T20:02:25.806Z,61.90
2018-07-24T20:05:05.706Z,61.60
2018-07-24T20:07:37.166Z,60.80
2018-07-24T20:10:09.973Z,60.40
2018-07-24T20:12:42.095Z,61.10
2018-07-24T20:15:19.125Z,62.10
2018-07-24T20:17:50.645Z,61.50
2018-07-24T20:20:30.815Z,61.30
2018-07-24T20:23:03.502Z,62.30
2018-07-24T20:25:42.961Z,62.10
2018-07-24T20:28:15.352Z,62.50
2018-07-24T20:30:46.006Z,62.90
2018-07-24T20:33:17.509Z,63.10
2018-07-24T20:35:49.063Z,63.20
2018-07-24T20:38:20.471Z,62.60
2018-07-24T20:40:52.282Z,62.50
2018-07-24T20:43:22.971Z,62.40
2018-07-24T20:45:54.471Z,62.10
2018-07-24T20:48:25.252Z,61.70
2018-07-24T20:50:57.075Z,62.00
2018-07-24T20:53:29.371Z,62.60
2018-07-24T20:56:00.213Z,62.80
2018-07-24T20:58:30.821Z,61.90
2018-07-24T21:01:02.126Z,62.40
2018-07-24T21:03:42.067Z,62.60
2018-07-24T21:06:13.585Z,62.60
2018-07-24T21:08:53.187Z,62.70
2018-07-24T21:11:24.302Z,62.90
2018-07-24T21:13:56.705Z,63.40
2018-07-24T21:16:27.845Z,63.50
2018-07-24T21:18:59.485Z,63.70
2018-07-24T21:21:34.366Z,63.70
2018-07-24T21:24:15.146Z,63.50
2018-07-24T21:26:46.645Z,63.90
2018-07-24T21:29:19.625Z,64.30
2018-07-24T21:31:51.625Z,64.80
2018-07-24T21:34:22.328Z,64.70
2018-07-24T21:36:55.167Z,64.30
2018-07-24T21:39:25.864Z,64.70
2018-07-24T21:41:57.765Z,65.30
2018-07-24T21:44:29.865Z,65.30
2018-07-24T21:47:00.569Z,65.30
2018-07-24T21:49:31.885Z,64.90
2018-07-24T21:52:03.316Z,65.20
2018-07-24T21:54:37.795Z,65.50
2018-07-24T21:57:09.035Z,65.50
2018-07-24T21:59:40.565Z,65.80
2018-07-24T22:02:11.665Z,65.60
2018-07-24T22:04:43.185Z,65.60
2018-07-24T22:07:14.945Z,66.00
2018-07-24T22:09:46.705Z,65.80
2018-07-24T22:12:18.582Z,66.10
2018-07-24T22:14:49.785Z,66.20
2018-07-24T22:17:21.235Z,65.30
2018-07-24T22:19:52.635Z,64.90
2018-07-24T22:22:24.329Z,64.90
2018-07-24T22:24:55.964Z,64.60
2018-07-24T22:27:28.615Z,64.50
2018-07-24T22:30:00.146Z,64.50
2018-07-24T22:32:30.826Z,64.70
2018-07-24T22:35:02.719Z,65.00
2018-07-24T22:37:33.769Z,65.40
2018-07-24T22:40:04.668Z,64.70
2018-07-24T22:42:35.769Z,64.40
2018-07-24T22:45:07.439Z,64.80
2018-07-24T22:47:38.749Z,64.70
2018-07-24T22:50:10.139Z,65.60
2018-07-24T22:52:41.365Z,65.10
2018-07-24T22:55:13.369Z,64.60
2018-07-24T22:57:44.019Z,65.00
2018-07-24T23:00:15.290Z,65.70
2018-07-24T23:02:47.979Z,65.80
2018-07-24T23:05:18.820Z,65.40
2018-07-24T23:07:49.878Z,66.10
2018-07-24T23:10:21.300Z,66.20
2018-07-24T23:12:53.150Z,66.30
2018-07-24T23:15:25.241Z,66.90
2018-07-24T23:34:40.491Z,67.50
2018-07-24T23:37:13.920Z,67.60
2018-07-24T23:39:45.190Z,67.80
2018-07-24T23:42:15.811Z,67.20
2018-07-24T23:44:47.109Z,67.70
2018-07-24T23:47:18.631Z,68.00
2018-07-24T23:49:50.110Z,67.80
2018-07-24T23:52:21.611Z,67.70
2018-07-24T23:54:52.671Z,67.80
2018-07-24T23:57:24.819Z,67.70
